createdAt,value
2018-04-12T00:00:00.934Z,100300.83
2018-04-12T02:58:41.355Z,100146.41
2018-04-12T03:01:16.821Z,100131.73
2018-04-12T03:03:51.906Z,100141.16
2018-04-12T03:06:27.300Z,100144.06
2018-04-12T03:09:02.275Z,100135.33
2018-04-12T03:11:37.174Z,100138.06
2018-04-12T03:14:12.173Z,100135.37
2018-04-12T03:16:47.257Z,100122.83
2018-04-12T03:19:22.198Z,100123.33
2018-04-12T03:21:56.623Z,100115.73
2018-04-12T03:24:31.667Z,100110.84
2018-04-12T03:27:06.545Z,100107.06
2018-04-12T03:29:41.606Z,100111.80
2018-04-12T03:32:16.613Z,100107.33
2018-04-12T03:34:51.533Z,100105.39
2018-04-12T03:37:26.241Z,100110.41
2018-04-12T03:40:01.219Z,100110.05
2018-04-12T03:42:35.916Z,100118.81
2018-04-12T03:45:10.820Z,100109.75
2018-04-12T03:47:45.625Z,100103.78
2018-04-12T03:50:20.393Z,100099.37
2018-04-12T03:52:55.285Z,100098.22
2018-04-12T03:55:31.639Z,100091.45
2018-04-12T03:58:06.294Z,100103.75
2018-04-12T04:00:41.361Z,100091.38
2018-04-12T04:03:16.489Z,100093.42
2018-04-12T04:05:51.412Z,100089.23
2018-04-12T04:08:26.490Z,100100.25
2018-04-12T04:11:01.622Z,100100.20
2018-04-12T04:13:36.865Z,100110.01
2018-04-12T04:16:23.434Z,100103.30
2018-04-12T04:19:09.701Z,100098.51
2018-04-12T04:21:44.769Z,100083.78
2018-04-12T04:24:19.532Z,100081.64
2018-04-12T04:26:54.461Z,100073.52
2018-04-12T04:29:29.448Z,100076.58
2018-04-12T04:32:04.447Z,100076.73
2018-04-12T04:34:39.667Z,100076.03
2018-04-12T04:37:15.423Z,100085.41
2018-04-12T04:39:50.340Z,100086.21
2018-04-12T04:42:25.846Z,100099.91
2018-04-12T04:45:00.609Z,100104.56
2018-04-12T04:47:35.468Z,100102.38
2018-04-12T04:50:10.606Z,100103.73
2018-04-12T04:52:45.784Z,100106.41
2018-04-12T04:55:20.485Z,100104.75
2018-04-12T04:57:55.005Z,100102.95
2018-04-12T05:00:29.909Z,100100.35
2018-04-12T05:03:04.853Z,100100.67
2018-04-12T05:05:39.740Z,100106.96
2018-04-12T05:08:14.713Z,100106.83
2018-04-12T05:10:49.625Z,100105.19
2018-04-12T05:13:24.632Z,100102.61
2018-04-12T05:15:59.622Z,100100.97
2018-04-12T05:18:35.001Z,100095.73
2018-04-12T05:21:09.681Z,100100.59
2018-04-12T05:23:44.893Z,100100.83
2018-04-12T05:26:19.509Z,100108.37
2018-04-12T05:28:54.633Z,100104.11
2018-04-12T05:31:29.670Z,100101.20
2018-04-12T05:34:04.342Z,100098.08
2018-04-12T05:36:39.645Z,100098.94
2018-04-12T05:39:14.714Z,100104.63
2018-04-12T05:41:50.041Z,100099.71
2018-04-12T05:44:24.721Z,100095.63
2018-04-12T05:46:59.707Z,100090.70
2018-04-12T05:49:34.810Z,100093.73
2018-04-12T05:52:09.048Z,100092.04
2018-04-12T05:54:44.077Z,100090.99
2018-04-12T05:57:18.982Z,100092.38
2018-04-12T05:59:53.468Z,100082.17
2018-04-12T06:02:28.459Z,100089.56
2018-04-12T06:05:03.440Z,100086.42
2018-04-12T06:07:38.833Z,100077.37
2018-04-12T06:10:13.405Z,100079.26
2018-04-12T06:12:48.484Z,100072.86
2018-04-12T06:15:23.142Z,100075.44
2018-04-12T06:17:57.941Z,100069.77
2018-04-12T06:20:32.366Z,100065.67
2018-04-12T06:23:07.689Z,100077.59
2018-04-12T06:25:43.081Z,100075.16
2018-04-12T06:28:17.941Z,100072.64
2018-04-12T06:30:52.941Z,100071.94
2018-04-12T06:33:28.013Z,100068.74
2018-04-12T06:36:03.074Z,100068.81
2018-04-12T06:38:38.288Z,100067.09
2018-04-12T06:41:13.038Z,100067.09
2018-04-12T06:43:47.966Z,100067.09
2018-04-12T06:46:23.009Z,100057.98
2018-04-12T06:48:57.985Z,100054.25
2018-04-12T06:51:32.485Z,100053.59
2018-04-12T06:54:07.338Z,100049.40
2018-04-12T06:56:42.417Z,100046.41
2018-04-12T06:59:17.407Z,100043.44
2018-04-12T07:01:52.421Z,100038.65
2018-04-12T07:04:27.402Z,100033.06
2018-04-12T07:07:02.253Z,100039.47
2018-04-12T07:09:37.153Z,100035.83
2018-04-12T07:12:11.621Z,100028.00
2018-04-12T07:14:46.601Z,100040.52
2018-04-12T07:17:21.481Z,100013.13
2018-04-12T07:19:56.507Z,100046.11
2018-04-12T07:22:32.449Z,100040.47
2018-04-12T07:25:07.438Z,100045.92
2018-04-12T07:27:42.129Z,100041.63
2018-04-12T07:30:17.218Z,100031.86
2018-04-12T07:32:51.709Z,100035.39
2018-04-12T07:35:26.504Z,100037.00
2018-04-12T07:38:01.192Z,100034.45
2018-04-12T07:40:36.161Z,100039.08
2018-04-12T07:43:11.366Z,100034.75
2018-04-12T07:45:46.515Z,100034.87
2018-04-12T07:48:21.285Z,100040.66
2018-04-12T07:50:55.673Z,100045.96
2018-04-12T07:53:30.677Z,100050.45
2018-04-12T07:56:05.633Z,100041.88
2018-04-12T07:58:40.538Z,100046.41
2018-04-12T08:01:16.100Z,100042.62
2018-04-12T08:03:50.868Z,100037.56
2018-04-12T08:06:25.775Z,100041.66
2018-04-12T08:09:00.774Z,100036.35
2018-04-12T08:11:35.572Z,100034.33
2018-04-12T08:14:10.386Z,100037.55
2018-04-12T08:16:45.285Z,100044.69
2018-04-12T08:19:20.240Z,100026.84
2018-04-12T08:21:54.991Z,100041.42
2018-04-12T08:24:29.596Z,100028.64
2018-04-12T08:27:04.162Z,100028.04
2018-04-12T08:29:39.533Z,100029.20
2018-04-12T08:32:14.337Z,100025.41
2018-04-12T08:34:49.244Z,100034.51
2018-04-12T08:37:24.381Z,100033.16
2018-04-12T08:39:59.278Z,100032.10
2018-04-12T08:42:34.452Z,100030.25
2018-04-12T08:45:08.838Z,100031.24
2018-04-12T08:47:43.873Z,100022.63
2018-04-12T08:50:19.254Z,100013.69
2018-04-12T08:52:54.297Z,100007.08
2018-04-12T08:55:29.345Z,100003.27
2018-04-12T08:58:04.323Z,99998.98
2018-04-12T09:00:39.445Z,99997.48
2018-04-12T09:03:14.329Z,99993.91
2018-04-12T09:05:48.910Z,99995.28
2018-04-12T09:08:23.786Z,99989.55
2018-04-12T09:10:58.693Z,99990.34
2018-04-12T09:13:33.884Z,99991.70
2018-04-12T09:16:08.678Z,99986.13
2018-04-12T09:18:43.474Z,99975.94
2018-04-12T09:21:18.498Z,99977.57
2018-04-12T09:23:53.509Z,99971.57
2018-04-12T09:26:28.469Z,99959.09
2018-04-12T09:29:03.336Z,99967.45
2018-04-12T09:31:37.945Z,99959.61
2018-04-12T09:34:12.719Z,99951.86
2018-04-12T09:36:47.720Z,99947.70
2018-04-12T09:39:23.551Z,99942.00
2018-04-12T09:41:57.925Z,99937.38
2018-04-12T09:44:32.973Z,99932.58
2018-04-12T09:47:07.774Z,99925.50
2018-04-12T09:49:42.682Z,99916.75
2018-04-12T09:52:17.469Z,99925.52
2018-04-12T09:54:52.118Z,99928.07
2018-04-12T09:57:27.683Z,99927.83
2018-04-12T10:00:02.532Z,99924.91
2018-04-12T10:02:42.973Z,99921.80
2018-04-12T10:05:30.338Z,99920.39
2018-04-12T10:08:10.650Z,99929.75
2018-04-12T10:10:45.742Z,99928.77
2018-04-12T10:13:20.853Z,99927.06
2018-04-12T10:15:55.865Z,99927.84
2018-04-12T10:18:31.151Z,99925.13
2018-04-12T10:21:06.097Z,99925.98
2018-04-12T10:23:40.817Z,99927.55
2018-04-12T10:26:15.937Z,99932.31
2018-04-12T10:28:51.531Z,99927.70
2018-04-12T10:31:25.790Z,99934.16
2018-04-12T10:34:00.977Z,99925.63
2018-04-12T10:36:36.162Z,99931.45
2018-04-12T10:39:10.785Z,99938.48
2018-04-12T10:41:45.723Z,99932.11
2018-04-12T10:44:21.331Z,99938.22
2018-04-12T10:46:55.986Z,99928.21
2018-04-12T10:49:30.621Z,99926.78
2018-04-12T10:52:05.282Z,99918.55
2018-04-12T10:54:40.760Z,99916.20
2018-04-12T10:57:14.922Z,99916.13
2018-04-12T10:59:49.530Z,99904.88
2018-04-12T11:02:24.718Z,99918.36
2018-04-12T11:04:59.724Z,99928.95
2018-04-12T11:07:35.209Z,99931.57
2018-04-12T11:10:09.598Z,99933.99
2018-04-12T11:12:44.889Z,99931.42
2018-04-12T11:15:19.646Z,99923.66
2018-04-12T11:17:54.782Z,99917.78
2018-04-12T11:20:30.281Z,99922.15
2018-04-12T11:23:05.433Z,99919.81
2018-04-12T11:25:40.738Z,99911.39
2018-04-12T11:28:15.849Z,99909.16
2018-04-12T11:30:51.110Z,99911.27
2018-04-12T11:33:26.184Z,99909.48
2018-04-12T11:36:01.182Z,99902.86
2018-04-12T11:38:36.201Z,99911.09
2018-04-12T11:41:11.301Z,99903.53
2018-04-12T11:43:46.285Z,99895.66
2018-04-12T11:46:21.276Z,99898.65
2018-04-12T11:48:55.748Z,99893.87
2018-04-12T11:51:30.988Z,99894.70
2018-04-12T11:54:05.979Z,99890.85
2018-04-12T11:56:40.470Z,99885.32
2018-04-12T11:59:15.957Z,99876.35
2018-04-12T12:01:50.946Z,99872.34
2018-04-12T12:04:25.922Z,99865.95
2018-04-12T12:07:00.932Z,99865.58
2018-04-12T12:09:36.985Z,99862.63
2018-04-12T12:12:11.300Z,99866.39
2018-04-12T12:14:46.261Z,99863.83
2018-04-12T12:17:21.265Z,99860.55
2018-04-12T12:19:56.050Z,99852.03
2018-04-12T12:22:31.002Z,99842.30
2018-04-12T12:25:05.965Z,99840.44
2018-04-12T12:27:41.303Z,99823.80
2018-04-12T12:30:15.981Z,99829.17
2018-04-12T12:32:50.659Z,99832.84
2018-04-12T12:35:26.081Z,99826.47
2018-04-12T12:38:01.000Z,99824.33
2018-04-12T12:40:35.974Z,99811.41
2018-04-12T12:43:11.029Z,99817.47
2018-04-12T12:45:46.316Z,99806.20
2018-04-12T12:48:21.157Z,99819.59
2018-04-12T12:50:56.268Z,99812.50
2018-04-12T12:53:31.366Z,99810.42
2018-04-12T12:56:06.292Z,99802.15
2018-04-12T12:58:41.333Z,99804.41
2018-04-12T13:01:16.046Z,99797.03
2018-04-12T13:03:51.409Z,99806.69
2018-04-12T13:06:26.542Z,99800.16
2018-04-12T13:09:01.493Z,99789.88
2018-04-12T13:11:36.469Z,99790.16
2018-04-12T13:14:11.464Z,99781.83
2018-04-12T13:16:46.412Z,99776.22
2018-04-12T13:19:21.341Z,99769.95
2018-04-12T13:21:56.121Z,99780.54
2018-04-12T13:24:31.094Z,99782.46
2018-04-12T13:27:06.006Z,99770.99
2018-04-12T13:29:41.077Z,99751.22
2018-04-12T13:32:15.430Z,99748.77
2018-04-12T13:34:50.381Z,99747.09
2018-04-12T13:37:25.234Z,99740.82
2018-04-12T13:40:00.329Z,99733.63
2018-04-12T13:42:35.277Z,99741.37
2018-04-12T13:45:10.557Z,99742.97
2018-04-12T13:47:45.506Z,99755.61
2018-04-12T13:50:20.433Z,99739.10
2018-04-12T13:52:55.355Z,99731.44
2018-04-12T13:55:30.646Z,99743.28
2018-04-12T13:58:05.585Z,99741.92
2018-04-12T14:00:40.530Z,99727.34
2018-04-12T14:03:15.434Z,99733.63
2018-04-12T14:05:50.413Z,99737.06
2018-04-12T14:08:25.584Z,99737.23
2018-04-12T14:11:00.566Z,99731.95
2018-04-12T14:13:35.177Z,99732.11
2018-04-12T14:16:10.281Z,99738.77
2018-04-12T14:18:45.533Z,99726.05
2018-04-12T14:21:20.838Z,99719.72
2018-04-12T14:23:55.726Z,99713.86
2018-04-12T14:26:30.683Z,99711.73
2018-04-12T14:29:05.072Z,99713.59
2018-04-12T14:31:40.481Z,99712.33
2018-04-12T14:34:15.309Z,99724.09
2018-04-12T14:36:50.577Z,99736.61
2018-04-12T14:39:25.366Z,99741.17
2018-04-12T14:42:00.053Z,99733.66
2018-04-12T14:44:34.842Z,99735.28
2018-04-12T14:47:09.467Z,99734.78
2018-04-12T14:49:44.742Z,99733.25
2018-04-12T14:52:19.566Z,99732.09
2018-04-12T14:54:54.388Z,99733.25
2018-04-12T14:57:29.589Z,99736.08
2018-04-12T15:00:04.022Z,99744.32
2018-04-12T15:02:39.746Z,99738.34
2018-04-12T15:05:14.266Z,99738.31
2018-04-12T15:07:49.650Z,99726.20
2018-04-12T15:10:24.433Z,99733.80
2018-04-12T15:12:59.422Z,99736.10
2018-04-12T15:15:33.997Z,99732.92
2018-04-12T15:18:09.502Z,99731.63
2018-04-12T15:20:43.905Z,99731.84
2018-04-12T15:23:18.905Z,99723.27
2018-04-12T15:25:53.889Z,99727.09
2018-04-12T15:28:28.973Z,99713.60
2018-04-12T15:31:04.025Z,99707.95
2018-04-12T15:33:39.105Z,99709.74
2018-04-12T15:36:14.573Z,99712.77
2018-04-12T15:38:49.124Z,99713.10
2018-04-12T15:41:24.104Z,99711.20
2018-04-12T15:43:59.006Z,99700.56
2018-04-12T15:46:33.925Z,99698.84
2018-04-12T15:49:08.945Z,99693.49
2018-04-12T15:51:43.929Z,99681.11
2018-04-12T15:54:18.947Z,99687.13
2018-04-12T15:56:53.633Z,99683.86
2018-04-12T15:59:28.473Z,99685.44
2018-04-12T16:02:03.590Z,99688.83
2018-04-12T16:04:38.772Z,99689.82
2018-04-12T16:07:13.667Z,99692.61
2018-04-12T16:09:48.804Z,99689.27
2018-04-12T16:12:23.703Z,99692.11
2018-04-12T16:14:58.657Z,99687.34
2018-04-12T16:17:33.985Z,99695.84
2018-04-12T16:20:08.562Z,99700.98
2018-04-12T16:22:43.582Z,99703.23
2018-04-12T16:25:18.595Z,99708.78
2018-04-12T16:27:53.967Z,99709.52
2018-04-12T16:30:28.637Z,99714.29
2018-04-12T16:33:03.697Z,99708.21
2018-04-12T16:35:39.198Z,99704.15
2018-04-12T16:38:13.714Z,99707.33
2018-04-12T16:40:48.904Z,99709.69
2018-04-12T16:43:23.702Z,99707.41
2018-04-12T16:45:58.498Z,99702.06
2018-04-12T16:48:34.110Z,99701.63
2018-04-12T16:51:09.095Z,99698.78
2018-04-12T16:53:44.059Z,99696.73
2018-04-12T16:56:18.721Z,99699.02
2018-04-12T16:58:53.799Z,99692.52
2018-04-12T17:01:28.325Z,99694.61
2018-04-12T17:04:03.005Z,99700.88
2018-04-12T17:06:38.409Z,99701.38
2018-04-12T17:09:12.877Z,99704.37
2018-04-12T17:11:48.165Z,99712.84
2018-04-12T17:14:22.844Z,99717.31
2018-04-12T17:16:57.701Z,99717.78
2018-04-12T17:19:34.084Z,99721.05
2018-04-12T17:22:08.681Z,99721.77
2018-04-12T17:24:44.232Z,99723.67
2018-04-12T17:27:19.033Z,99717.45
2018-04-12T17:29:54.210Z,99721.85
2018-04-12T17:32:29.005Z,99726.55
2018-04-12T17:35:03.925Z,99732.00
2018-04-12T17:37:38.189Z,99718.59
2018-04-12T17:40:13.389Z,99723.72
2018-04-12T17:42:48.561Z,99723.81
2018-04-12T17:45:23.968Z,99731.88
2018-04-12T17:47:59.203Z,99730.32
2018-04-12T17:50:34.490Z,99731.28
2018-04-12T17:53:10.105Z,99735.42
2018-04-12T17:55:45.293Z,99734.69
2018-04-12T17:58:20.041Z,99738.04
2018-04-12T18:00:55.034Z,99733.25
2018-04-12T18:03:30.045Z,99735.95
2018-04-12T18:06:04.574Z,99740.94
2018-04-12T18:08:39.666Z,99737.42
2018-04-12T18:11:14.289Z,99744.11
2018-04-12T18:13:50.132Z,99738.49
2018-04-12T18:16:25.219Z,99739.45
2018-04-12T18:19:00.094Z,99738.89
2018-04-12T18:21:35.430Z,99741.05
2018-04-12T18:24:11.179Z,99743.98
2018-04-12T18:26:46.377Z,99750.06
2018-04-12T18:29:21.270Z,99749.73
2018-04-12T18:31:56.221Z,99750.53
2018-04-12T18:34:31.394Z,99758.58
2018-04-12T18:37:06.325Z,99766.48
2018-04-12T18:39:41.381Z,99769.58
2018-04-12T18:42:16.314Z,99777.05
2018-04-12T18:44:51.236Z,99785.92
2018-04-12T18:47:26.452Z,99781.54
2018-04-12T18:50:01.454Z,99789.14
2018-04-12T18:52:36.552Z,99782.80
2018-04-12T18:55:12.167Z,99787.34
2018-04-12T18:57:47.421Z,99792.75
2018-04-12T19:00:22.781Z,99792.02
2018-04-12T19:02:57.689Z,99794.33
2018-04-12T19:05:32.692Z,99799.20
2018-04-12T19:08:07.597Z,99803.69
2018-04-12T19:10:42.510Z,99795.97
2018-04-12T19:13:17.390Z,99803.31
2018-04-12T19:15:52.300Z,99800.52
2018-04-12T19:18:26.893Z,99805.68
2018-04-12T19:21:01.612Z,99812.61
2018-04-12T19:23:36.475Z,99809.84
2018-04-12T19:26:11.361Z,99806.64
2018-04-12T19:28:46.441Z,99803.94
2018-04-12T19:31:21.365Z,99796.99
2018-04-12T19:33:56.352Z,99799.67
2018-04-12T19:36:31.285Z,99798.86
2018-04-12T19:39:05.729Z,99796.11
2018-04-12T19:41:41.273Z,99793.80
2018-04-12T19:44:16.543Z,99799.44
2018-04-12T19:46:51.385Z,99799.30
2018-04-12T19:49:26.022Z,99797.70
2018-04-12T19:52:01.374Z,99799.41
2018-04-12T19:54:36.908Z,99802.48
2018-04-12T19:57:11.729Z,99799.12
2018-04-12T19:59:46.783Z,99798.59
2018-04-12T20:02:21.689Z,99785.62
2018-04-12T20:04:56.353Z,99777.36
2018-04-12T20:07:31.470Z,99782.03
2018-04-12T20:10:05.153Z,99786.80
2018-04-12T20:12:40.676Z,99779.36
2018-04-12T20:15:15.472Z,99781.50
2018-04-12T20:17:50.650Z,99780.48
2018-04-12T20:20:26.393Z,99784.39
2018-04-12T20:23:00.900Z,99779.14
2018-04-12T20:25:36.058Z,99792.06
2018-04-12T20:28:10.732Z,99785.02
2018-04-12T20:30:46.358Z,99774.31
2018-04-12T20:33:20.593Z,99774.50
2018-04-12T20:35:55.369Z,99772.70
2018-04-12T20:38:30.510Z,99768.39
2018-04-12T20:41:05.420Z,99773.19
2018-04-12T20:43:39.912Z,99768.33
2018-04-12T20:46:14.929Z,99766.73
2018-04-12T20:48:50.041Z,99770.22
2018-04-12T20:51:25.558Z,99773.77
2018-04-12T20:54:00.540Z,99779.41
2018-04-12T20:56:35.627Z,99789.41
2018-04-12T20:59:10.546Z,99775.39
2018-04-12T21:01:45.449Z,99771.41
2018-04-12T21:04:20.046Z,99776.94
2018-04-12T21:06:55.325Z,99776.16
2018-04-12T21:09:30.030Z,99779.98
2018-04-12T21:12:04.693Z,99781.98
2018-04-12T21:14:39.858Z,99783.77
2018-04-12T21:17:14.568Z,99784.20
2018-04-12T21:19:49.644Z,99780.37
2018-04-12T21:22:24.533Z,99775.72
2018-04-12T21:24:59.129Z,99777.03
2018-04-12T21:27:34.885Z,99775.61
2018-04-12T21:30:09.660Z,99783.77
2018-04-12T21:32:44.806Z,99790.91
2018-04-12T21:35:19.282Z,99792.73
2018-04-12T21:37:54.185Z,99802.05
2018-04-12T21:40:28.986Z,99792.73
2018-04-12T21:43:03.778Z,99791.38
2018-04-12T21:45:38.856Z,99796.38
2018-04-12T21:48:14.071Z,99802.64
2018-04-12T21:50:49.866Z,99799.83
2018-04-12T21:53:25.149Z,99805.79
2018-04-12T21:55:59.608Z,99797.11
2018-04-12T21:58:35.105Z,99799.00
2018-04-12T22:01:09.293Z,99790.88
2018-04-12T22:03:44.074Z,99795.73
2018-04-12T22:06:18.950Z,99802.67
2018-04-12T22:08:54.521Z,99797.39
2018-04-12T22:11:29.795Z,99792.11
2018-04-12T22:14:04.765Z,99788.28
2018-04-12T22:16:39.533Z,99782.75
2018-04-12T22:19:14.609Z,99790.07
2018-04-12T22:21:49.202Z,99779.79
2018-04-12T22:24:24.189Z,99777.47
2018-04-12T22:26:58.955Z,99770.62
2018-04-12T22:29:34.989Z,99778.67
2018-04-12T22:32:09.891Z,99779.20
2018-04-12T22:34:44.789Z,99780.41
2018-04-12T22:37:20.197Z,99768.87
2018-04-12T22:39:54.900Z,99773.47
2018-04-12T22:42:29.726Z,99768.19
2018-04-12T22:45:04.402Z,99767.41
2018-04-12T22:47:39.291Z,99772.06
2018-04-12T22:50:14.193Z,99786.30
2018-04-12T22:52:49.454Z,99811.00
2018-04-12T22:55:24.265Z,99813.34
2018-04-12T22:57:59.050Z,99818.91
2018-04-12T23:00:34.900Z,99821.53
2018-04-12T23:03:09.777Z,99821.44
2018-04-12T23:05:45.988Z,99830.91
2018-04-12T23:08:21.281Z,99837.21
2018-04-12T23:10:56.183Z,99844.47
2018-04-12T23:13:31.174Z,99839.16
2018-04-12T23:16:06.152Z,99844.75
2018-04-12T23:18:41.310Z,99842.75
2018-04-12T23:21:16.062Z,99848.18
2018-04-12T23:23:51.133Z,99846.82
2018-04-12T23:26:26.191Z,99838.77
2018-04-12T23:29:01.184Z,99843.70
2018-04-12T23:31:36.381Z,99857.06
2018-04-12T23:34:11.106Z,99874.47
2018-04-12T23:36:46.313Z,99883.24
2018-04-12T23:39:21.120Z,99889.16
2018-04-12T23:41:56.078Z,99897.11
2018-04-12T23:44:31.485Z,99900.86
2018-04-12T23:47:06.206Z,99890.09
2018-04-12T23:49:41.209Z,99892.37
2018-04-12T23:52:15.714Z,99893.40
2018-04-12T23:54:50.309Z,99892.98
2018-04-12T23:57:25.524Z,99894.84
